• Join FlightAware (Why Join?)
  • Login
  • US Flag 
09:22PM EST


 

Airport Tracker/Info


-or-


 

Live Flight TrackerFlight Track Log ✈ CPT8773 ✈ 13-Jun-2013 ✈ KCPR - KCOD

Flight Track Log - Related Links

Times and Time Zones

All times are in EDT time to prevent confusion due to time zone crossing. See the CPT8773 flight status page for this flight to view local times or setup timezone preferences in your user account.

Time Position Orientation Groundspeed Altitude Reporting Facility
EDT Latitude Longitude Course Direction KTS MPH feet Rate Location/Type
09:31AM 42.9828 -106.4775 308° West 136 157 6,800  Level Denver Center
09:32AM 43.0189 -106.4950 340° North 124 143 7,500 480 Climbing Denver Center
09:33AM 43.0503 -106.5019 351° North 120 138 7,800 300 Climbing Denver Center
09:35AM 43.0976 -106.2917 308° West  Level FlightAware Approximate
09:35AM 43.0808 -106.5058 355° North 117 135 8,300  Level Denver Center
09:36AM 43.1234 -106.3367 308° West  Level FlightAware Approximate
09:36AM 43.1219 -106.5139 352° North 117 135 8,700  Level Denver Center
09:37AM 43.1491 -106.3817 308° West  Level FlightAware Approximate
09:37AM 43.1542 -106.5181 355° North 118 136 9,100  Level Denver Center
09:38AM 43.1911 -106.5233 354° North 120 138 9,500 240 Climbing Denver Center
09:39AM 43.2219 -106.5342 346° North 120 138 9,700 240 Climbing Denver Center
09:40AM 43.2486 -106.5675 318° Northwest 119 137 10,100 240 Climbing Denver Center
09:41AM 43.2622 -106.6008 299° West 107 123 10,300 240 Climbing Denver Center
09:42AM 43.2794 -106.6328 307° West 109 125 10,600 240 Climbing Denver Center
09:43AM 43.2986 -106.6725 304° West 111 128 10,800 240 Climbing Denver Center
09:44AM 43.3194 -106.7047 312° West 119 137 11,200 240 Climbing Denver Center
09:45AM 43.3378 -106.7406 305° West 119 137 11,300 240 Climbing Denver Center
09:46AM 43.3594 -106.7850 304° West 124 143 11,700 240 Climbing Denver Center
09:47AM 43.3806 -106.8206 309° West 126 145 11,900 120 Climbing Denver Center
09:48AM 43.4072 -106.8656 309° West 135 155 12,000 60 Climbing Denver Center
09:49AM 43.4325 -106.9133 306° West 149 171 12,100  Climbing Denver Center
09:50AM 43.4583 -106.9583 308° West 155 178 12,000 -60 Descending Denver Center
09:51AM 43.4786 -107.0083 299° West 156 180 12,000  Level Denver Center
09:52AM 43.5036 -107.0603 304° West 146 168 12,100  Climbing Denver Center
09:53AM 43.5250 -107.1058 303° West 148 170 12,000  Descending Denver Center
09:54AM 43.5531 -107.1542 309° West 145 167 12,100  Climbing Denver Center
09:54AM 43.5586 -107.1711 294° West 144 166 12,000 -120 Descending Salt Lake Center
09:55AM 43.5803 -107.2136 305° West 143 165 12,000 -60 Level Salt Lake Center
09:56AM 43.6036 -107.2553 308° West 143 165 11,900 -60 Descending Salt Lake Center
09:57AM 43.6303 -107.3028 308° West 141 162 11,900  Level Salt Lake Center
09:58AM 43.6514 -107.3450 305° West 140 161 12,000  Climbing Salt Lake Center
10:00AM 43.6783 -107.3933 308° West 141 162 11,900  Descending Salt Lake Center
10:01AM 43.6994 -107.4361 304° West 141 162 12,000  Climbing Salt Lake Center
10:02AM 43.7258 -107.4844 307° West 141 162 11,900 -60 Descending Salt Lake Center
10:03AM 43.7497 -107.5264 308° West 143 165 11,900  Level Salt Lake Center
10:04AM 43.7717 -107.5692 305° West 142 163 12,000  Climbing Salt Lake Center
10:05AM 43.7956 -107.6219 302° West 143 165 11,900  Descending Salt Lake Center
10:06AM 43.8325 -107.6917 306° West 148 170 12,000  Climbing Denver Center
10:08AM 43.8618 -107.7417 309° West  Level FlightAware Approximate
10:15AM 44.0240 -108.0607 313° West  Level FlightAware Approximate